Zagreb — 9AA5910 — position and weather

sailwx.info

Track history (hours):
 
Tides and Currents Weather Stations Pressure Air Temp Water Temp Dewpoint Dewpoint Depression Visibility Wind Speed Wind Dir Waves Ship Positions

Zagreb

Last reported at 2018-Apr-22 06:32 UTC. Time now 2018-Apr-23 21:19 UTC.
Position N 60°28' E 028°21'.

Length 229 m; draft 8.3 m.

Type: Cargo ship. MMSI: 238249000.

Date/timePositionNaut miles runAvg speedWind from/ knotsBaromVisibWave heightAir tempDewpointWater temp
2018-Apr-22 06:32N 60°28' E 028°21'011.9
2018-Apr-22 06:30N 60°28' E 028°21'612.1
2018-Apr-22 06:00N 60°25' E 028°10'612.3
2018-Apr-22 05:30N 60°21' E 028°01'613.0
2018-Apr-22 05:00N 60°16' E 027°53'612.7
2018-Apr-22 04:30N 60°11' E 027°45'613.0
2018-Apr-22 04:00N 60°07' E 027°34'713.1
2018-Apr-22 03:30N 60°04' E 027°23'713.3
2018-Apr-22 03:00N 60°01' E 027°11'612.4
2018-Apr-22 02:30N 59°58' E 026°60'612.9
2018-Apr-22 02:00N 59°59' E 026°47'612.9
2018-Apr-22 01:30N 59°59' E 026°34'713.6
2018-Apr-22 01:00N 59°57' E 026°21'2613.2
2018-Apr-21 23:00N 59°50' E 025°30'713.3
2018-Apr-21 22:30N 59°49' E 025°17'713.4
2018-Apr-21 22:00N 59°48' E 025°04'613.3
2018-Apr-21 21:30N 59°46' E 024°51'713.3
2018-Apr-21 21:00N 59°45' E 024°38'713.0
2018-Apr-21 20:30N 59°43' E 024°26'713.1
2018-Apr-21 20:00N 59°42' E 024°13'713.3
2018-Apr-21 19:30N 59°39' E 024°00'713.5
2018-Apr-21 19:00N 59°37' E 023°48'813.6
2018-Apr-21 18:23N 59°34' E 023°32'613.4
2018-Apr-21 17:58N 59°32' E 023°22'23413.3
2018-Apr-21 00:23N 56°43' E 018°16'514.0
2018-Apr-21 00:00N 56°39' E 018°08'814.0
2018-Apr-20 23:28N 56°35' E 017°57'614.0
2018-Apr-20 23:00N 56°31' E 017°48'1714.0
2018-Apr-20 21:46N 56°20' E 017°23'1814.1
2018-Apr-20 20:28N 56°09' E 016°57'614.1
2018-Apr-20 20:00N 56°05' E 016°48'714.1
2018-Apr-20 19:31N 56°01' E 016°38'714.1
2018-Apr-20 19:00N 55°57' E 016°27'713.9
2018-Apr-20 18:30N 55°53' E 016°17'713.9
2018-Apr-20 18:00N 55°50' E 016°06'713.9
2018-Apr-20 17:30N 55°46' E 015°56'714.0
2018-Apr-20 17:00N 55°42' E 015°45'714.0
2018-Apr-20 16:31N 55°39' E 015°34'713.9
2018-Apr-20 16:00N 55°36' E 015°23'714.0
2018-Apr-20 15:29N 55°32' E 015°12'613.8
2018-Apr-20 15:00N 55°30' E 015°01'713.7
2018-Apr-20 14:31N 55°27' E 014°50'714.0
2018-Apr-20 14:00N 55°24' E 014°39'714.1
2018-Apr-20 13:30N 55°19' E 014°31'714.0
2018-Apr-20 13:00N 55°13' E 014°24'612.3
2018-Apr-20 12:30N 55°10' E 014°14'813.7
2018-Apr-20 11:57N 55°10' E 014°01'1913.5
2018-Apr-20 10:35N 55°11' E 013°28'113.5
2018-Apr-20 10:30N 55°11' E 013°27'713.6
2018-Apr-20 09:58N 55°11' E 013°14'713.3
2018-Apr-20 09:27N 55°12' E 013°02'613.4
2018-Apr-20 09:00N 55°14' E 012°52'713.5
2018-Apr-20 08:28N 55°17' E 012°41'510.8
2018-Apr-20 08:00N 55°22' E 012°39'612.5
2018-Apr-20 07:30N 55°29' E 012°41'611.4
2018-Apr-20 07:00N 55°34' E 012°42'5 9.3
2018-Apr-20 06:30N 55°39' E 012°41'5 9.6
2018-Apr-20 06:00N 55°43' E 012°41'510.0
2018-Apr-20 05:30N 55°48' E 012°42'612.1
2018-Apr-20 05:00N 55°54' E 012°38'611.5
2018-Apr-20 04:30N 55°60' E 012°40'611.2
2018-Apr-20 04:00N 56°05' E 012°36'611.7
2018-Apr-20 03:30N 56°08' E 012°28'1713.1
2018-Apr-20 02:11N 56°18' E 012°02'213.3
2018-Apr-20 02:00N 56°21' E 012°01'713.1
2018-Apr-20 01:30N 56°27' E 011°59'713.2
2018-Apr-20 01:00N 56°33' E 011°57'713.2
2018-Apr-20 00:30N 56°40' E 011°55'713.2
2018-Apr-20 00:00N 56°46' E 011°51'713.4
2018-Apr-19 23:30N 56°53' E 011°47'813.3
2018-Apr-19 22:55N 56°60' E 011°42'512.9
2018-Apr-19 22:30N 57°05' E 011°39'612.9
2018-Apr-19 22:00N 57°11' E 011°35'713.1
2018-Apr-19 21:30N 57°17' E 011°31'713.4
2018-Apr-19 21:00N 57°23' E 011°26'713.0
2018-Apr-19 20:30N 57°29' E 011°21'613.0
2018-Apr-19 20:00N 57°34' E 011°12'713.4
2018-Apr-19 19:30N 57°38' E 011°03'613.0
2018-Apr-19 19:00N 57°42' E 010°53'713.0
2018-Apr-19 18:30N 57°47' E 010°44'612.6
2018-Apr-19 18:00N 57°48' E 010°32'713.2
2018-Apr-19 17:30N 57°46' E 010°20'813.0
2018-Apr-19 16:53N 57°46' E 010°05'513.1
2018-Apr-19 16:30N 57°46' E 009°56'713.7
2018-Apr-19 15:58N 57°45' E 009°42'913.9
2018-Apr-19 15:19N 57°42' E 009°26'414.1
2018-Apr-19 15:00N 57°40' E 009°19'913.9
2018-Apr-19 14:21N 57°37' E 009°03'514.1
2018-Apr-19 14:01N 57°35' E 008°55'814.3
2018-Apr-19 13:28N 57°31' E 008°42'714.3
2018-Apr-19 12:58N 57°28' E 008°29'26013.6
2018-Apr-18 17:47N 53°39' E 004°52'514.9
2018-Apr-18 17:27N 53°34' E 004°49'614.3
2018-Apr-18 17:01N 53°28' E 004°45'714.2
2018-Apr-18 16:31N 53°22' E 004°40'813.9
2018-Apr-18 15:57N 53°15' E 004°34'613.9
2018-Apr-18 15:30N 53°09' E 004°29'713.5
2018-Apr-18 15:00N 53°03' E 004°24'713.3
2018-Apr-18 14:30N 52°57' E 004°19'613.1
2018-Apr-18 14:00N 52°52' E 004°14'712.9
2018-Apr-18 13:28N 52°46' E 004°09'712.7
2018-Apr-18 12:57N 52°39' E 004°06'612.6
2018-Apr-18 12:30N 52°34' E 004°07'612.9
2018-Apr-18 12:00N 52°30' E 004°16'3 6.8
2018-Apr-18 11:30N 52°29' E 004°22'5 9.9
2018-Apr-18 11:00N 52°28' E 004°29'4 8.6
2018-Apr-18 10:30N 52°28' E 004°37'0 0.0
2018-Apr-18 10:00N 52°28' E 004°37'2 4.3
2018-Apr-18 09:31N 52°28' E 004°40'4 7.2
2018-Apr-18 09:00N 52°26' E 004°45'2 4.8
2018-Apr-18 08:31N 52°25' E 004°49'0 0.7
2018-Apr-18 08:01N 52°25' E 004°49'0 0.0
2018-Apr-18 07:30N 52°25' E 004°49'0 0.0
2018-Apr-18 07:00N 52°25' E 004°49'0 0.0
2018-Apr-18 06:30N 52°25' E 004°49'0 0.0
2018-Apr-18 05:57N 52°25' E 004°49'0 0.0
2018-Apr-18 05:30N 52°25' E 004°49'0 0.0
2018-Apr-18 05:00N 52°25' E 004°49'0 0.0
2018-Apr-18 04:30N 52°25' E 004°49'0 0.0
2018-Apr-18 04:00N 52°25' E 004°49'0 0.0
2018-Apr-18 03:30N 52°25' E 004°49'0 0.0
2018-Apr-18 03:00N 52°25' E 004°49'0 0.0
2018-Apr-18 02:30N 52°25' E 004°49'0 0.0
2018-Apr-18 02:00N 52°25' E 004°49'0 0.0
2018-Apr-18 01:30N 52°25' E 004°49'0 0.0
2018-Apr-18 01:00N 52°25' E 004°49'0 0.0
2018-Apr-18 00:30N 52°25' E 004°49'0 0.0
2018-Apr-18 00:00N 52°25' E 004°49'0 0.0
2018-Apr-17 23:30N 52°25' E 004°49'0 0.0
2018-Apr-17 23:00N 52°25' E 004°49'0 0.0
2018-Apr-17 22:30N 52°25' E 004°49'0 0.0
2018-Apr-17 22:00N 52°25' E 004°49'0 0.0
2018-Apr-17 21:30N 52°25' E 004°49'0 0.0
2018-Apr-17 21:00N 52°25' E 004°49'0 0.0
2018-Apr-17 20:30N 52°25' E 004°49'0 0.0
2018-Apr-17 20:00N 52°25' E 004°49'0 0.0
2018-Apr-17 19:30N 52°25' E 004°49'0 0.0
2018-Apr-17 19:00N 52°25' E 004°49'0 0.0
2018-Apr-17 18:27N 52°25' E 004°49'0 0.0
2018-Apr-17 18:00N 52°25' E 004°49'0 0.0
2018-Apr-17 17:30N 52°25' E 004°49'0 0.0
2018-Apr-17 16:57N 52°25' E 004°49'0 0.0
2018-Apr-17 16:30N 52°25' E 004°49'0 0.0
2018-Apr-17 16:00N 52°25' E 004°49'0 0.0
2018-Apr-17 15:30N 52°25' E 004°49'0 0.0
2018-Apr-17 15:00N 52°25' E 004°49'0 0.0
2018-Apr-17 14:30N 52°25' E 004°49'0 0.0
2018-Apr-17 14:00N 52°25' E 004°49'0 0.0
2018-Apr-17 13:30N 52°25' E 004°49'0 0.0
2018-Apr-17 13:00N 52°25' E 004°49'0 0.0
2018-Apr-17 12:30N 52°25' E 004°49'0 0.0
2018-Apr-17 12:00N 52°25' E 004°49'0 0.0
2018-Apr-17 11:30N 52°25' E 004°49'0 0.0
2018-Apr-17 11:00N 52°25' E 004°49'0 0.0
2018-Apr-17 10:30N 52°25' E 004°49'0 0.0
2018-Apr-17 10:00N 52°25' E 004°49'0 0.0
2018-Apr-17 09:30N 52°25' E 004°49'0 0.0
2018-Apr-17 09:00N 52°25' E 004°49'0 0.0
2018-Apr-17 08:30N 52°25' E 004°49'0 0.0
2018-Apr-17 08:00N 52°25' E 004°49'0 0.0
2018-Apr-17 07:30N 52°25' E 004°49'0 0.0
2018-Apr-17 07:00N 52°25' E 004°49'0 0.0
2018-Apr-17 06:30N 52°25' E 004°49'0 0.0
2018-Apr-17 06:00N 52°25' E 004°49'0 0.0
2018-Apr-17 05:27N 52°25' E 004°49'0 0.0
2018-Apr-17 05:00N 52°25' E 004°49'0 0.0
2018-Apr-17 04:30N 52°25' E 004°49'0 0.0
2018-Apr-17 04:00N 52°25' E 004°49'0 0.0
2018-Apr-17 03:30N 52°25' E 004°49'0 0.0
2018-Apr-17 03:00N 52°25' E 004°49'0 0.0
2018-Apr-17 02:30N 52°25' E 004°49'0 0.0
2018-Apr-17 02:00N 52°25' E 004°49'0 0.0
2018-Apr-17 01:30N 52°25' E 004°49'0 0.0
2018-Apr-17 01:00N 52°25' E 004°49'0 0.0
2018-Apr-17 00:30N 52°25' E 004°49'0 0.0
2018-Apr-17 00:00N 52°25' E 004°49'0 0.0
2018-Apr-16 23:30N 52°25' E 004°49'0 0.0
2018-Apr-16 23:00N 52°25' E 004°49'0 0.0
2018-Apr-16 22:30N 52°25' E 004°49'0 0.0
2018-Apr-16 22:00N 52°25' E 004°49'0 0.0
2018-Apr-16 21:30N 52°25' E 004°49'0 0.0
2018-Apr-16 21:00N 52°25' E 004°49'0 0.0
2018-Apr-16 20:30N 52°25' E 004°49'0 0.0
2018-Apr-16 20:00N 52°25' E 004°49'0 0.0
2018-Apr-16 19:30N 52°25' E 004°49'0 0.0
2018-Apr-16 19:00N 52°25' E 004°49'0 0.0
2018-Apr-16 18:30N 52°25' E 004°49'0 0.0
2018-Apr-16 18:00N 52°25' E 004°49'0 0.0
2018-Apr-16 17:30N 52°25' E 004°49'0 0.0
2018-Apr-16 17:00N 52°25' E 004°49'0 0.0
2018-Apr-16 16:30N 52°25' E 004°49'0 0.0
2018-Apr-16 16:00N 52°25' E 004°49'0 0.0
2018-Apr-16 15:30N 52°25' E 004°49'0 0.0
2018-Apr-16 15:00N 52°25' E 004°49'0 0.0
2018-Apr-16 14:30N 52°25' E 004°49'0 0.0
2018-Apr-16 14:00N 52°25' E 004°49'0 0.0
2018-Apr-16 13:30N 52°25' E 004°49'0 0.0
2018-Apr-16 13:00N 52°25' E 004°49'0 0.0
2018-Apr-16 12:30N 52°25' E 004°49'0 0.0
2018-Apr-16 12:00N 52°25' E 004°49'0 0.0
2018-Apr-16 11:30N 52°25' E 004°49'0 0.0
2018-Apr-16 11:00N 52°25' E 004°49'0 0.0
2018-Apr-16 10:30N 52°25' E 004°49'0 0.0
2018-Apr-16 09:57N 52°25' E 004°49'0 0.0
2018-Apr-16 09:30N 52°25' E 004°49'0 0.0
2018-Apr-16 08:57N 52°25' E 004°49'0 0.0
2018-Apr-16 08:30N 52°25' E 004°49'0 0.0
2018-Apr-16 08:00N 52°25' E 004°49'0 0.0
2018-Apr-16 07:30N 52°25' E 004°49'0 0.0
2018-Apr-16 07:00N 52°25' E 004°49'0 0.0
2018-Apr-16 06:30N 52°25' E 004°49'0 0.0
2018-Apr-16 06:00N 52°25' E 004°49'0 0.0
2018-Apr-16 05:30N 52°25' E 004°49'0 0.0
2018-Apr-16 05:00N 52°25' E 004°49'0 0.0
2018-Apr-16 04:30N 52°25' E 004°49'0 0.0
2018-Apr-16 04:00N 52°25' E 004°49'0 0.0
2018-Apr-16 03:30N 52°25' E 004°49'0 0.0
2018-Apr-16 03:00N 52°25' E 004°49'0 0.0
2018-Apr-16 02:30N 52°25' E 004°49'0 0.0
2018-Apr-16 02:00N 52°25' E 004°49'0 0.0
2018-Apr-16 01:30N 52°25' E 004°49'0 0.0
2018-Apr-16 01:00N 52°25' E 004°49'0 0.0
2018-Apr-16 00:30N 52°25' E 004°49'0 0.0
2018-Apr-16 00:00N 52°25' E 004°49'0 0.0
2018-Apr-15 23:30N 52°25' E 004°49'0 0.0
2018-Apr-15 23:00N 52°25' E 004°49'0 0.0
2018-Apr-15 22:30N 52°25' E 004°49'0 0.0
2018-Apr-15 22:00N 52°25' E 004°49'0 0.0
2018-Apr-15 21:30N 52°25' E 004°49'0 0.0
2018-Apr-15 21:00N 52°25' E 004°49'0 0.0
2018-Apr-15 20:30N 52°25' E 004°49'0 0.0
2018-Apr-15 19:57N 52°25' E 004°49'0 0.0
2018-Apr-15 19:30N 52°25' E 004°49'0 0.0
2018-Apr-15 19:00N 52°25' E 004°49'0 0.0
2018-Apr-15 18:30N 52°25' E 004°49'0 0.0
2018-Apr-15 18:00N 52°25' E 004°49'0 0.0
2018-Apr-15 17:30N 52°25' E 004°49'0 0.0
2018-Apr-15 16:57N 52°25' E 004°49'0 0.0
2018-Apr-15 16:30N 52°25' E 004°49'0 0.0
2018-Apr-15 16:00N 52°25' E 004°49'0 0.0
2018-Apr-15 15:30N 52°25' E 004°49'0 0.0
2018-Apr-15 15:00N 52°25' E 004°49'0 0.0
2018-Apr-15 14:30N 52°25' E 004°49'0 0.0
2018-Apr-15 14:00N 52°25' E 004°49'0 0.0
2018-Apr-15 13:30N 52°25' E 004°49'1 1.2
2018-Apr-15 13:01N 52°25' E 004°49'3 5.8
2018-Apr-15 12:31N 52°26' E 004°44'4 7.2
2018-Apr-15 12:01N 52°28' E 004°39'2 3.2
2018-Apr-15 11:30N 52°28' E 004°36'0 0.1
2018-Apr-15 11:00N 52°28' E 004°36'2 4.6
2018-Apr-15 10:30N 52°28' E 004°33'611.0
2018-Apr-15 10:00N 52°29' E 004°24'3 6.7
2018-Apr-15 09:30N 52°28' E 004°18'510.6
2018-Apr-15 09:00N 52°29' E 004°10'4 7.3
2018-Apr-15 08:30N 52°27' E 004°04'0 0.1
2018-Apr-15 08:00N 52°27' E 004°04'0 0.0
2018-Apr-15 07:30N 52°27' E 004°04'0 0.0
2018-Apr-15 07:00N 52°27' E 004°04'0 0.0
2018-Apr-15 06:27N 52°27' E 004°04'0 0.4
2018-Apr-15 05:57N 52°27' E 004°04'0 0.2
2018-Apr-15 05:30N 52°27' E 004°04'0 0.0
2018-Apr-15 05:00N 52°27' E 004°05'0 0.0
2018-Apr-15 04:12N 52°27' E 004°05'0 0.0
2018-Apr-15 02:18N 52°27' E 004°05'0 0.0
2018-Apr-15 01:57N 52°27' E 004°05'0 0.0
2018-Apr-15 01:24N 52°27' E 004°05'0 0.0
2018-Apr-15 01:00N 52°27' E 004°05'0 0.3
2018-Apr-15 00:24N 52°27' E 004°04'0 0.2
2018-Apr-15 00:00N 52°27' E 004°04'0 0.0
2018-Apr-14 23:30N 52°27' E 004°04'0 0.0
2018-Apr-14 23:00N 52°27' E 004°04'0 0.0
2018-Apr-14 22:30N 52°27' E 004°04'0 0.0
2018-Apr-14 22:00N 52°27' E 004°04'0 0.0
2018-Apr-14 21:30N 52°27' E 004°04'0 0.0
2018-Apr-14 21:00N 52°27' E 004°04'0 0.0
2018-Apr-14 20:30N 52°27' E 004°04'0 0.0
2018-Apr-14 20:00N 52°27' E 004°04'0 0.0
2018-Apr-14 19:30N 52°27' E 004°04'0 0.0
2018-Apr-14 18:57N 52°27' E 004°04'0 0.1
2018-Apr-14 18:30N 52°27' E 004°04'0 0.0
2018-Apr-14 18:00N 52°27' E 004°04'0 0.3
2018-Apr-14 17:30N 52°27' E 004°05'0 0.2
2018-Apr-14 16:57N 52°27' E 004°05'0 0.0
2018-Apr-14 16:30N 52°27' E 004°05'0 0.0
2018-Apr-14 13:30N 52°27' E 004°05'0 0.0
2018-Apr-14 13:00N 52°27' E 004°05'0 0.0
2018-Apr-14 12:30N 52°27' E 004°05'0 0.1
2018-Apr-14 12:00N 52°27' E 004°05'0 0.2
2018-Apr-14 11:27N 52°27' E 004°05'0 0.1
2018-Apr-14 11:00N 52°27' E 004°04'0 0.1
2018-Apr-14 10:30N 52°27' E 004°04'0 0.0
2018-Apr-14 10:00N 52°27' E 004°04'0 0.0
2018-Apr-14 09:30N 52°27' E 004°04'0 0.0
2018-Apr-14 09:00N 52°27' E 004°04'0 0.0
2018-Apr-14 08:30N 52°27' E 004°04'0 0.0
2018-Apr-14 08:00N 52°27' E 004°04'0 0.0
2018-Apr-14 07:30N 52°27' E 004°04'0 0.0
2018-Apr-14 07:00N 52°27' E 004°04'0 0.0
2018-Apr-14 06:30N 52°27' E 004°04'0 0.1
2018-Apr-14 05:57N 52°27' E 004°04'0 0.1
2018-Apr-14 05:30N 52°27' E 004°05'0 0.3
2018-Apr-14 05:00N 52°27' E 004°05'0 0.1
2018-Apr-14 04:24N 52°27' E 004°05'0 0.0
2018-Apr-14 03:51N 52°27' E 004°05'0 0.0
2018-Apr-14 02:54N 52°27' E 004°05'0 0.0
2018-Apr-14 02:27N 52°27' E 004°05'0 0.1
2018-Apr-14 01:58N 52°27' E 004°05'2 3.5
2018-Apr-14 01:30N 52°28' E 004°02'611.2
2018-Apr-14 01:00N 52°27' E 003°54'713.8
2018-Apr-14 00:30N 52°25' E 003°43'713.9
2018-Apr-14 00:00N 52°22' E 003°32'714.1
2018-Apr-13 23:30N 52°18' E 003°23'3713.0
2018-Apr-13 20:38N 51°51' E 002°42'212.2
2018-Apr-13 20:28N 51°49' E 002°40'611.9
2018-Apr-13 19:58N 51°45' E 002°33'511.6
2018-Apr-13 19:30N 51°40' E 002°28'611.5
2018-Apr-13 19:00N 51°36' E 002°22'611.3
2018-Apr-13 18:29N 51°31' E 002°16'511.3
2018-Apr-13 18:00N 51°26' E 002°12'510.2
2018-Apr-13 17:30N 51°22' E 002°14'713.5
2018-Apr-13 17:00N 51°22' E 002°25'713.6
2018-Apr-13 16:29N 51°22' E 002°36'712.8
2018-Apr-13 15:57N 51°22' E 002°47'613.1
2018-Apr-13 15:29N 51°23' E 002°57'612.3
2018-Apr-13 15:00N 51°24' E 003°06'713.4
2018-Apr-13 14:30N 51°25' E 003°17'713.3
2018-Apr-13 14:00N 51°25' E 003°27'713.4
2018-Apr-13 13:30N 51°26' E 003°38'3 5.4
2018-Apr-13 13:00N 51°27' E 003°42'0 1.0
2018-Apr-13 12:30N 51°27' E 003°42'0 0.0
2018-Apr-13 12:00N 51°27' E 003°42'0 0.0
2018-Apr-13 11:30N 51°27' E 003°42'0 0.0
2018-Apr-13 11:00N 51°27' E 003°42'0 0.0
2018-Apr-13 10:30N 51°27' E 003°42'0 0.0
2018-Apr-13 09:54N 51°27' E 003°42'0 0.0
2018-Apr-13 09:30N 51°27' E 003°42'0 0.0
2018-Apr-13 08:54N 51°27' E 003°42'0 0.0
2018-Apr-13 08:30N 51°27' E 003°42'0 0.0
2018-Apr-13 08:00N 51°27' E 003°42'0 0.0
2018-Apr-13 07:30N 51°27' E 003°42'0 0.0
2018-Apr-13 06:54N 51°27' E 003°42'0 0.0
2018-Apr-13 06:30N 51°27' E 003°42'0 0.0
2018-Apr-13 06:00N 51°27' E 003°42'0 0.0
2018-Apr-13 05:30N 51°27' E 003°42'0 0.0
2018-Apr-13 05:00N 51°27' E 003°42'0 0.0
2018-Apr-13 04:30N 51°27' E 003°42'0 0.0
2018-Apr-13 04:00N 51°27' E 003°42'0 0.0
2018-Apr-13 03:30N 51°27' E 003°42'0 0.0
2018-Apr-13 03:00N 51°27' E 003°42'0 0.0
2018-Apr-13 02:30N 51°27' E 003°42'0 0.0
2018-Apr-13 01:57N 51°27' E 003°42'0 0.0
2018-Apr-13 01:30N 51°27' E 003°42'0 0.0
2018-Apr-13 01:00N 51°27' E 003°42'0 0.0
2018-Apr-13 00:30N 51°27' E 003°42'0 0.0
2018-Apr-13 00:00N 51°27' E 003°42'0 0.0
2018-Apr-12 23:27N 51°27' E 003°42'0 0.0
2018-Apr-12 22:57N 51°27' E 003°42'0 0.0
2018-Apr-12 22:30N 51°27' E 003°42'0 0.0
2018-Apr-12 22:00N 51°27' E 003°42'0 0.0
2018-Apr-12 21:30N 51°27' E 003°42'0 0.0
2018-Apr-12 21:00N 51°27' E 003°42'0 0.0
2018-Apr-12 20:27N 51°27' E 003°42'0 0.0
2018-Apr-12 20:00N 51°27' E 003°42'0 0.0
2018-Apr-12 19:30N 51°27' E 003°42'0 0.0
2018-Apr-12 19:00N 51°27' E 003°42'0 0.0
2018-Apr-12 18:30N 51°27' E 003°42'0 0.0
2018-Apr-12 18:00N 51°27' E 003°42'0 0.0
2018-Apr-12 17:30N 51°27' E 003°42'0 0.0
2018-Apr-12 16:48N 51°27' E 003°42'0 0.0
2018-Apr-12 16:30N 51°27' E 003°42'0 0.0
2018-Apr-12 16:00N 51°27' E 003°42'0 0.0
2018-Apr-12 15:30N 51°27' E 003°42'0 0.0
2018-Apr-12 14:57N 51°27' E 003°42'0 0.0
2018-Apr-12 14:30N 51°27' E 003°42'0 0.0
2018-Apr-12 14:00N 51°27' E 003°42'0 0.0
2018-Apr-12 13:30N 51°27' E 003°42'0 0.0
2018-Apr-12 13:00N 51°27' E 003°42'0 0.0
2018-Apr-12 12:30N 51°27' E 003°42'0 0.7
2018-Apr-12 12:00N 51°27' E 003°42'1 2.6
2018-Apr-12 11:30N 51°27' E 003°40'4 7.8
2018-Apr-12 11:00N 51°26' E 003°34'4 8.2
2018-Apr-12 10:30N 51°25' E 003°28'5 9.8
2018-Apr-12 10:00N 51°24' E 003°20'611.5
2018-Apr-12 09:30N 51°24' E 003°11'612.0
2018-Apr-12 09:00N 51°25' E 003°01'610.7
2018-Apr-12 08:29N 51°25' E 002°52'610.7
2018-Apr-12 07:58N 51°23' E 002°44'3 6.3
2018-Apr-12 07:30N 51°25' E 002°40'1 1.4
2018-Apr-12 06:58N 51°26' E 002°40'  
Track history (hours):
 
Tides and Currents Weather Stations Pressure Air Temp Water Temp Dewpoint Dewpoint Depression Visibility Wind Speed Wind Dir Waves Ship Positions

Zagreb

Last reported at 2018-Apr-22 06:32 UTC. Time now 2018-Apr-23 21:19 UTC.
Position N 60°28' E 028°21'.

Length 229 m; draft 8.3 m.

Type: Cargo ship. MMSI: 238249000.

Date/timePositionNaut miles runAvg speedWind from/ knotsBaromVisibWave heightAir tempDewpointWater temp
2018-Apr-22 06:32N 60°28' E 028°21'011.9
2018-Apr-22 06:30N 60°28' E 028°21'612.1
2018-Apr-22 06:00N 60°25' E 028°10'612.3
2018-Apr-22 05:30N 60°21' E 028°01'613.0
2018-Apr-22 05:00N 60°16' E 027°53'612.7
2018-Apr-22 04:30N 60°11' E 027°45'613.0
2018-Apr-22 04:00N 60°07' E 027°34'713.1
2018-Apr-22 03:30N 60°04' E 027°23'713.3
2018-Apr-22 03:00N 60°01' E 027°11'612.4
2018-Apr-22 02:30N 59°58' E 026°60'612.9
2018-Apr-22 02:00N 59°59' E 026°47'612.9
2018-Apr-22 01:30N 59°59' E 026°34'713.6
2018-Apr-22 01:00N 59°57' E 026°21'2613.2
2018-Apr-21 23:00N 59°50' E 025°30'713.3
2018-Apr-21 22:30N 59°49' E 025°17'713.4
2018-Apr-21 22:00N 59°48' E 025°04'613.3
2018-Apr-21 21:30N 59°46' E 024°51'713.3
2018-Apr-21 21:00N 59°45' E 024°38'713.0
2018-Apr-21 20:30N 59°43' E 024°26'713.1
2018-Apr-21 20:00N 59°42' E 024°13'713.3
2018-Apr-21 19:30N 59°39' E 024°00'713.5
2018-Apr-21 19:00N 59°37' E 023°48'813.6
2018-Apr-21 18:23N 59°34' E 023°32'613.4
2018-Apr-21 17:58N 59°32' E 023°22'23413.3
2018-Apr-21 00:23N 56°43' E 018°16'514.0
2018-Apr-21 00:00N 56°39' E 018°08'814.0
2018-Apr-20 23:28N 56°35' E 017°57'614.0
2018-Apr-20 23:00N 56°31' E 017°48'1714.0
2018-Apr-20 21:46N 56°20' E 017°23'1814.1
2018-Apr-20 20:28N 56°09' E 016°57'614.1
2018-Apr-20 20:00N 56°05' E 016°48'714.1
2018-Apr-20 19:31N 56°01' E 016°38'714.1
2018-Apr-20 19:00N 55°57' E 016°27'713.9
2018-Apr-20 18:30N 55°53' E 016°17'713.9
2018-Apr-20 18:00N 55°50' E 016°06'713.9
2018-Apr-20 17:30N 55°46' E 015°56'714.0
2018-Apr-20 17:00N 55°42' E 015°45'714.0
2018-Apr-20 16:31N 55°39' E 015°34'713.9
2018-Apr-20 16:00N 55°36' E 015°23'714.0
2018-Apr-20 15:29N 55°32' E 015°12'613.8
2018-Apr-20 15:00N 55°30' E 015°01'713.7
2018-Apr-20 14:31N 55°27' E 014°50'714.0
2018-Apr-20 14:00N 55°24' E 014°39'714.1
2018-Apr-20 13:30N 55°19' E 014°31'714.0
2018-Apr-20 13:00N 55°13' E 014°24'612.3
2018-Apr-20 12:30N 55°10' E 014°14'813.7
2018-Apr-20 11:57N 55°10' E 014°01'1913.5
2018-Apr-20 10:35N 55°11' E 013°28'113.5
2018-Apr-20 10:30N 55°11' E 013°27'713.6
2018-Apr-20 09:58N 55°11' E 013°14'713.3
2018-Apr-20 09:27N 55°12' E 013°02'613.4
2018-Apr-20 09:00N 55°14' E 012°52'713.5
2018-Apr-20 08:28N 55°17' E 012°41'510.8
2018-Apr-20 08:00N 55°22' E 012°39'612.5
2018-Apr-20 07:30N 55°29' E 012°41'611.4
2018-Apr-20 07:00N 55°34' E 012°42'5 9.3
2018-Apr-20 06:30N 55°39' E 012°41'5 9.6
2018-Apr-20 06:00N 55°43' E 012°41'510.0
2018-Apr-20 05:30N 55°48' E 012°42'612.1
2018-Apr-20 05:00N 55°54' E 012°38'611.5
2018-Apr-20 04:30N 55°60' E 012°40'611.2
2018-Apr-20 04:00N 56°05' E 012°36'611.7
2018-Apr-20 03:30N 56°08' E 012°28'1713.1
2018-Apr-20 02:11N 56°18' E 012°02'213.3
2018-Apr-20 02:00N 56°21' E 012°01'713.1
2018-Apr-20 01:30N 56°27' E 011°59'713.2
2018-Apr-20 01:00N 56°33' E 011°57'713.2
2018-Apr-20 00:30N 56°40' E 011°55'713.2
2018-Apr-20 00:00N 56°46' E 011°51'713.4
2018-Apr-19 23:30N 56°53' E 011°47'813.3
2018-Apr-19 22:55N 56°60' E 011°42'512.9
2018-Apr-19 22:30N 57°05' E 011°39'612.9
2018-Apr-19 22:00N 57°11' E 011°35'713.1
2018-Apr-19 21:30N 57°17' E 011°31'713.4
2018-Apr-19 21:00N 57°23' E 011°26'713.0
2018-Apr-19 20:30N 57°29' E 011°21'613.0
2018-Apr-19 20:00N 57°34' E 011°12'713.4
2018-Apr-19 19:30N 57°38' E 011°03'613.0
2018-Apr-19 19:00N 57°42' E 010°53'713.0
2018-Apr-19 18:30N 57°47' E 010°44'612.6
2018-Apr-19 18:00N 57°48' E 010°32'713.2
2018-Apr-19 17:30N 57°46' E 010°20'813.0
2018-Apr-19 16:53N 57°46' E 010°05'513.1
2018-Apr-19 16:30N 57°46' E 009°56'713.7
2018-Apr-19 15:58N 57°45' E 009°42'913.9
2018-Apr-19 15:19N 57°42' E 009°26'414.1
2018-Apr-19 15:00N 57°40' E 009°19'913.9
2018-Apr-19 14:21N 57°37' E 009°03'514.1
2018-Apr-19 14:01N 57°35' E 008°55'814.3
2018-Apr-19 13:28N 57°31' E 008°42'714.3
2018-Apr-19 12:58N 57°28' E 008°29'26013.6
2018-Apr-18 17:47N 53°39' E 004°52'514.9
2018-Apr-18 17:27N 53°34' E 004°49'614.3
2018-Apr-18 17:01N 53°28' E 004°45'714.2
2018-Apr-18 16:31N 53°22' E 004°40'813.9
2018-Apr-18 15:57N 53°15' E 004°34'613.9
2018-Apr-18 15:30N 53°09' E 004°29'713.5
2018-Apr-18 15:00N 53°03' E 004°24'713.3
2018-Apr-18 14:30N 52°57' E 004°19'613.1
2018-Apr-18 14:00N 52°52' E 004°14'712.9
2018-Apr-18 13:28N 52°46' E 004°09'712.7
2018-Apr-18 12:57N 52°39' E 004°06'612.6
2018-Apr-18 12:30N 52°34' E 004°07'612.9
2018-Apr-18 12:00N 52°30' E 004°16'3 6.8
2018-Apr-18 11:30N 52°29' E 004°22'5 9.9
2018-Apr-18 11:00N 52°28' E 004°29'4 8.6
2018-Apr-18 10:30N 52°28' E 004°37'0 0.0
2018-Apr-18 10:00N 52°28' E 004°37'2 4.3
2018-Apr-18 09:31N 52°28' E 004°40'4 7.2
2018-Apr-18 09:00N 52°26' E 004°45'2 4.8
2018-Apr-18 08:31N 52°25' E 004°49'0 0.7
2018-Apr-18 08:01N 52°25' E 004°49'0 0.0
2018-Apr-18 07:30N 52°25' E 004°49'0 0.0
2018-Apr-18 07:00N 52°25' E 004°49'0 0.0
2018-Apr-18 06:30N 52°25' E 004°49'0 0.0
2018-Apr-18 05:57N 52°25' E 004°49'0 0.0
2018-Apr-18 05:30N 52°25' E 004°49'0 0.0
2018-Apr-18 05:00N 52°25' E 004°49'0 0.0
2018-Apr-18 04:30N 52°25' E 004°49'0 0.0
2018-Apr-18 04:00N 52°25' E 004°49'0 0.0
2018-Apr-18 03:30N 52°25' E 004°49'0 0.0
2018-Apr-18 03:00N 52°25' E 004°49'0 0.0
2018-Apr-18 02:30N 52°25' E 004°49'0 0.0
2018-Apr-18 02:00N 52°25' E 004°49'0 0.0
2018-Apr-18 01:30N 52°25' E 004°49'0 0.0
2018-Apr-18 01:00N 52°25' E 004°49'0 0.0
2018-Apr-18 00:30N 52°25' E 004°49'0 0.0
2018-Apr-18 00:00N 52°25' E 004°49'0 0.0
2018-Apr-17 23:30N 52°25' E 004°49'0 0.0
2018-Apr-17 23:00N 52°25' E 004°49'0 0.0
2018-Apr-17 22:30N 52°25' E 004°49'0 0.0
2018-Apr-17 22:00N 52°25' E 004°49'0 0.0
2018-Apr-17 21:30N 52°25' E 004°49'0 0.0
2018-Apr-17 21:00N 52°25' E 004°49'0 0.0
2018-Apr-17 20:30N 52°25' E 004°49'0 0.0
2018-Apr-17 20:00N 52°25' E 004°49'0 0.0
2018-Apr-17 19:30N 52°25' E 004°49'0 0.0
2018-Apr-17 19:00N 52°25' E 004°49'0 0.0
2018-Apr-17 18:27N 52°25' E 004°49'0 0.0
2018-Apr-17 18:00N 52°25' E 004°49'0 0.0
2018-Apr-17 17:30N 52°25' E 004°49'0 0.0
2018-Apr-17 16:57N 52°25' E 004°49'0 0.0
2018-Apr-17 16:30N 52°25' E 004°49'0 0.0
2018-Apr-17 16:00N 52°25' E 004°49'0 0.0
2018-Apr-17 15:30N 52°25' E 004°49'0 0.0
2018-Apr-17 15:00N 52°25' E 004°49'0 0.0
2018-Apr-17 14:30N 52°25' E 004°49'0 0.0
2018-Apr-17 14:00N 52°25' E 004°49'0 0.0
2018-Apr-17 13:30N 52°25' E 004°49'0 0.0
2018-Apr-17 13:00N 52°25' E 004°49'0 0.0
2018-Apr-17 12:30N 52°25' E 004°49'0 0.0
2018-Apr-17 12:00N 52°25' E 004°49'0 0.0
2018-Apr-17 11:30N 52°25' E 004°49'0 0.0
2018-Apr-17 11:00N 52°25' E 004°49'0 0.0
2018-Apr-17 10:30N 52°25' E 004°49'0 0.0
2018-Apr-17 10:00N 52°25' E 004°49'0 0.0
2018-Apr-17 09:30N 52°25' E 004°49'0 0.0
2018-Apr-17 09:00N 52°25' E 004°49'0 0.0
2018-Apr-17 08:30N 52°25' E 004°49'0 0.0
2018-Apr-17 08:00N 52°25' E 004°49'0 0.0
2018-Apr-17 07:30N 52°25' E 004°49'0 0.0
2018-Apr-17 07:00N 52°25' E 004°49'0 0.0
2018-Apr-17 06:30N 52°25' E 004°49'0 0.0
2018-Apr-17 06:00N 52°25' E 004°49'0 0.0
2018-Apr-17 05:27N 52°25' E 004°49'0 0.0
2018-Apr-17 05:00N 52°25' E 004°49'0 0.0
2018-Apr-17 04:30N 52°25' E 004°49'0 0.0
2018-Apr-17 04:00N 52°25' E 004°49'0 0.0
2018-Apr-17 03:30N 52°25' E 004°49'0 0.0
2018-Apr-17 03:00N 52°25' E 004°49'0 0.0
2018-Apr-17 02:30N 52°25' E 004°49'0 0.0
2018-Apr-17 02:00N 52°25' E 004°49'0 0.0
2018-Apr-17 01:30N 52°25' E 004°49'0 0.0
2018-Apr-17 01:00N 52°25' E 004°49'0 0.0
2018-Apr-17 00:30N 52°25' E 004°49'0 0.0
2018-Apr-17 00:00N 52°25' E 004°49'0 0.0
2018-Apr-16 23:30N 52°25' E 004°49'0 0.0
2018-Apr-16 23:00N 52°25' E 004°49'0 0.0
2018-Apr-16 22:30N 52°25' E 004°49'0 0.0
2018-Apr-16 22:00N 52°25' E 004°49'0 0.0
2018-Apr-16 21:30N 52°25' E 004°49'0 0.0
2018-Apr-16 21:00N 52°25' E 004°49'0 0.0
2018-Apr-16 20:30N 52°25' E 004°49'0 0.0
2018-Apr-16 20:00N 52°25' E 004°49'0 0.0
2018-Apr-16 19:30N 52°25' E 004°49'0 0.0
2018-Apr-16 19:00N 52°25' E 004°49'0 0.0
2018-Apr-16 18:30N 52°25' E 004°49'0 0.0
2018-Apr-16 18:00N 52°25' E 004°49'0 0.0
2018-Apr-16 17:30N 52°25' E 004°49'0 0.0
2018-Apr-16 17:00N 52°25' E 004°49'0 0.0
2018-Apr-16 16:30N 52°25' E 004°49'0 0.0
2018-Apr-16 16:00N 52°25' E 004°49'0 0.0
2018-Apr-16 15:30N 52°25' E 004°49'0 0.0
2018-Apr-16 15:00N 52°25' E 004°49'0 0.0
2018-Apr-16 14:30N 52°25' E 004°49'0 0.0
2018-Apr-16 14:00N 52°25' E 004°49'0 0.0
2018-Apr-16 13:30N 52°25' E 004°49'0 0.0
2018-Apr-16 13:00N 52°25' E 004°49'0 0.0
2018-Apr-16 12:30N 52°25' E 004°49'0 0.0
2018-Apr-16 12:00N 52°25' E 004°49'0 0.0
2018-Apr-16 11:30N 52°25' E 004°49'0 0.0
2018-Apr-16 11:00N 52°25' E 004°49'0 0.0
2018-Apr-16 10:30N 52°25' E 004°49'0 0.0
2018-Apr-16 09:57N 52°25' E 004°49'0 0.0
2018-Apr-16 09:30N 52°25' E 004°49'0 0.0
2018-Apr-16 08:57N 52°25' E 004°49'0 0.0
2018-Apr-16 08:30N 52°25' E 004°49'0 0.0
2018-Apr-16 08:00N 52°25' E 004°49'0 0.0
2018-Apr-16 07:30N 52°25' E 004°49'0 0.0
2018-Apr-16 07:00N 52°25' E 004°49'0 0.0
2018-Apr-16 06:30N 52°25' E 004°49'0 0.0
2018-Apr-16 06:00N 52°25' E 004°49'0 0.0
2018-Apr-16 05:30N 52°25' E 004°49'0 0.0
2018-Apr-16 05:00N 52°25' E 004°49'0 0.0
2018-Apr-16 04:30N 52°25' E 004°49'0 0.0
2018-Apr-16 04:00N 52°25' E 004°49'0 0.0
2018-Apr-16 03:30N 52°25' E 004°49'0 0.0
2018-Apr-16 03:00N 52°25' E 004°49'0 0.0
2018-Apr-16 02:30N 52°25' E 004°49'0 0.0
2018-Apr-16 02:00N 52°25' E 004°49'0 0.0
2018-Apr-16 01:30N 52°25' E 004°49'0 0.0
2018-Apr-16 01:00N 52°25' E 004°49'0 0.0
2018-Apr-16 00:30N 52°25' E 004°49'0 0.0
2018-Apr-16 00:00N 52°25' E 004°49'0 0.0
2018-Apr-15 23:30N 52°25' E 004°49'0 0.0
2018-Apr-15 23:00N 52°25' E 004°49'0 0.0
2018-Apr-15 22:30N 52°25' E 004°49'0 0.0
2018-Apr-15 22:00N 52°25' E 004°49'0 0.0
2018-Apr-15 21:30N 52°25' E 004°49'0 0.0
2018-Apr-15 21:00N 52°25' E 004°49'0 0.0
2018-Apr-15 20:30N 52°25' E 004°49'0 0.0
2018-Apr-15 19:57N 52°25' E 004°49'0 0.0
2018-Apr-15 19:30N 52°25' E 004°49'0 0.0
2018-Apr-15 19:00N 52°25' E 004°49'0 0.0
2018-Apr-15 18:30N 52°25' E 004°49'0 0.0
2018-Apr-15 18:00N 52°25' E 004°49'0 0.0
2018-Apr-15 17:30N 52°25' E 004°49'0 0.0
2018-Apr-15 16:57N 52°25' E 004°49'0 0.0
2018-Apr-15 16:30N 52°25' E 004°49'0 0.0
2018-Apr-15 16:00N 52°25' E 004°49'0 0.0
2018-Apr-15 15:30N 52°25' E 004°49'0 0.0
2018-Apr-15 15:00N 52°25' E 004°49'0 0.0
2018-Apr-15 14:30N 52°25' E 004°49'0 0.0
2018-Apr-15 14:00N 52°25' E 004°49'0 0.0
2018-Apr-15 13:30N 52°25' E 004°49'1 1.2
2018-Apr-15 13:01N 52°25' E 004°49'3 5.8
2018-Apr-15 12:31N 52°26' E 004°44'4 7.2
2018-Apr-15 12:01N 52°28' E 004°39'2 3.2
2018-Apr-15 11:30N 52°28' E 004°36'0 0.1
2018-Apr-15 11:00N 52°28' E 004°36'2 4.6
2018-Apr-15 10:30N 52°28' E 004°33'611.0
2018-Apr-15 10:00N 52°29' E 004°24'3 6.7
2018-Apr-15 09:30N 52°28' E 004°18'510.6
2018-Apr-15 09:00N 52°29' E 004°10'4 7.3
2018-Apr-15 08:30N 52°27' E 004°04'0 0.1
2018-Apr-15 08:00N 52°27' E 004°04'0 0.0
2018-Apr-15 07:30N 52°27' E 004°04'0 0.0
2018-Apr-15 07:00N 52°27' E 004°04'0 0.0
2018-Apr-15 06:27N 52°27' E 004°04'0 0.4
2018-Apr-15 05:57N 52°27' E 004°04'0 0.2
2018-Apr-15 05:30N 52°27' E 004°04'0 0.0
2018-Apr-15 05:00N 52°27' E 004°05'0 0.0
2018-Apr-15 04:12N 52°27' E 004°05'0 0.0
2018-Apr-15 02:18N 52°27' E 004°05'0 0.0
2018-Apr-15 01:57N 52°27' E 004°05'0 0.0
2018-Apr-15 01:24N 52°27' E 004°05'0 0.0
2018-Apr-15 01:00N 52°27' E 004°05'0 0.3
2018-Apr-15 00:24N 52°27' E 004°04'0 0.2
2018-Apr-15 00:00N 52°27' E 004°04'0 0.0
2018-Apr-14 23:30N 52°27' E 004°04'0 0.0
2018-Apr-14 23:00N 52°27' E 004°04'0 0.0
2018-Apr-14 22:30N 52°27' E 004°04'0 0.0
2018-Apr-14 22:00N 52°27' E 004°04'0 0.0
2018-Apr-14 21:30N 52°27' E 004°04'0 0.0
2018-Apr-14 21:00N 52°27' E 004°04'0 0.0
2018-Apr-14 20:30N 52°27' E 004°04'0 0.0
2018-Apr-14 20:00N 52°27' E 004°04'0 0.0
2018-Apr-14 19:30N 52°27' E 004°04'0 0.0
2018-Apr-14 18:57N 52°27' E 004°04'0 0.1
2018-Apr-14 18:30N 52°27' E 004°04'0 0.0
2018-Apr-14 18:00N 52°27' E 004°04'0 0.3
2018-Apr-14 17:30N 52°27' E 004°05'0 0.2
2018-Apr-14 16:57N 52°27' E 004°05'0 0.0
2018-Apr-14 16:30N 52°27' E 004°05'0 0.0
2018-Apr-14 13:30N 52°27' E 004°05'0 0.0
2018-Apr-14 13:00N 52°27' E 004°05'0 0.0
2018-Apr-14 12:30N 52°27' E 004°05'0 0.1
2018-Apr-14 12:00N 52°27' E 004°05'0 0.2
2018-Apr-14 11:27N 52°27' E 004°05'0 0.1
2018-Apr-14 11:00N 52°27' E 004°04'0 0.1
2018-Apr-14 10:30N 52°27' E 004°04'0 0.0
2018-Apr-14 10:00N 52°27' E 004°04'0 0.0
2018-Apr-14 09:30N 52°27' E 004°04'0 0.0
2018-Apr-14 09:00N 52°27' E 004°04'0 0.0
2018-Apr-14 08:30N 52°27' E 004°04'0 0.0
2018-Apr-14 08:00N 52°27' E 004°04'0 0.0
2018-Apr-14 07:30N 52°27' E 004°04'0 0.0
2018-Apr-14 07:00N 52°27' E 004°04'0 0.0
2018-Apr-14 06:30N 52°27' E 004°04'0 0.1
2018-Apr-14 05:57N 52°27' E 004°04'0 0.1
2018-Apr-14 05:30N 52°27' E 004°05'0 0.3
2018-Apr-14 05:00N 52°27' E 004°05'0 0.1
2018-Apr-14 04:24N 52°27' E 004°05'0 0.0
2018-Apr-14 03:51N 52°27' E 004°05'0 0.0
2018-Apr-14 02:54N 52°27' E 004°05'0 0.0
2018-Apr-14 02:27N 52°27' E 004°05'0 0.1
2018-Apr-14 01:58N 52°27' E 004°05'2 3.5
2018-Apr-14 01:30N 52°28' E 004°02'611.2
2018-Apr-14 01:00N 52°27' E 003°54'713.8
2018-Apr-14 00:30N 52°25' E 003°43'713.9
2018-Apr-14 00:00N 52°22' E 003°32'714.1
2018-Apr-13 23:30N 52°18' E 003°23'3713.0
2018-Apr-13 20:38N 51°51' E 002°42'212.2
2018-Apr-13 20:28N 51°49' E 002°40'611.9
2018-Apr-13 19:58N 51°45' E 002°33'511.6
2018-Apr-13 19:30N 51°40' E 002°28'611.5
2018-Apr-13 19:00N 51°36' E 002°22'611.3
2018-Apr-13 18:29N 51°31' E 002°16'511.3
2018-Apr-13 18:00N 51°26' E 002°12'510.2
2018-Apr-13 17:30N 51°22' E 002°14'713.5
2018-Apr-13 17:00N 51°22' E 002°25'713.6
2018-Apr-13 16:29N 51°22' E 002°36'712.8
2018-Apr-13 15:57N 51°22' E 002°47'613.1
2018-Apr-13 15:29N 51°23' E 002°57'612.3
2018-Apr-13 15:00N 51°24' E 003°06'713.4
2018-Apr-13 14:30N 51°25' E 003°17'713.3
2018-Apr-13 14:00N 51°25' E 003°27'713.4
2018-Apr-13 13:30N 51°26' E 003°38'3 5.4
2018-Apr-13 13:00N 51°27' E 003°42'0 1.0
2018-Apr-13 12:30N 51°27' E 003°42'0 0.0
2018-Apr-13 12:00N 51°27' E 003°42'0 0.0
2018-Apr-13 11:30N 51°27' E 003°42'0 0.0
2018-Apr-13 11:00N 51°27' E 003°42'0 0.0
2018-Apr-13 10:30N 51°27' E 003°42'0 0.0
2018-Apr-13 09:54N 51°27' E 003°42'0 0.0
2018-Apr-13 09:30N 51°27' E 003°42'0 0.0
2018-Apr-13 08:54N 51°27' E 003°42'0 0.0
2018-Apr-13 08:30N 51°27' E 003°42'0 0.0
2018-Apr-13 08:00N 51°27' E 003°42'0 0.0
2018-Apr-13 07:30N 51°27' E 003°42'0 0.0
2018-Apr-13 06:54N 51°27' E 003°42'0 0.0
2018-Apr-13 06:30N 51°27' E 003°42'0 0.0
2018-Apr-13 06:00N 51°27' E 003°42'0 0.0
2018-Apr-13 05:30N 51°27' E 003°42'0 0.0
2018-Apr-13 05:00N 51°27' E 003°42'0 0.0
2018-Apr-13 04:30N 51°27' E 003°42'0 0.0
2018-Apr-13 04:00N 51°27' E 003°42'0 0.0
2018-Apr-13 03:30N 51°27' E 003°42'0 0.0
2018-Apr-13 03:00N 51°27' E 003°42'0 0.0
2018-Apr-13 02:30N 51°27' E 003°42'0 0.0
2018-Apr-13 01:57N 51°27' E 003°42'0 0.0
2018-Apr-13 01:30N 51°27' E 003°42'0 0.0
2018-Apr-13 01:00N 51°27' E 003°42'0 0.0
2018-Apr-13 00:30N 51°27' E 003°42'0 0.0
2018-Apr-13 00:00N 51°27' E 003°42'0 0.0
2018-Apr-12 23:27N 51°27' E 003°42'0 0.0
2018-Apr-12 22:57N 51°27' E 003°42'0 0.0
2018-Apr-12 22:30N 51°27' E 003°42'0 0.0
2018-Apr-12 22:00N 51°27' E 003°42'0 0.0
2018-Apr-12 21:30N 51°27' E 003°42'0 0.0
2018-Apr-12 21:00N 51°27' E 003°42'0 0.0
2018-Apr-12 20:27N 51°27' E 003°42'0 0.0
2018-Apr-12 20:00N 51°27' E 003°42'0 0.0
2018-Apr-12 19:30N 51°27' E 003°42'0 0.0
2018-Apr-12 19:00N 51°27' E 003°42'0 0.0
2018-Apr-12 18:30N 51°27' E 003°42'0 0.0
2018-Apr-12 18:00N 51°27' E 003°42'0 0.0
2018-Apr-12 17:30N 51°27' E 003°42'0 0.0
2018-Apr-12 16:48N 51°27' E 003°42'0 0.0
2018-Apr-12 16:30N 51°27' E 003°42'0 0.0
2018-Apr-12 16:00N 51°27' E 003°42'0 0.0
2018-Apr-12 15:30N 51°27' E 003°42'0 0.0
2018-Apr-12 14:57N 51°27' E 003°42'0 0.0
2018-Apr-12 14:30N 51°27' E 003°42'0 0.0
2018-Apr-12 14:00N 51°27' E 003°42'0 0.0
2018-Apr-12 13:30N 51°27' E 003°42'0 0.0
2018-Apr-12 13:00N 51°27' E 003°42'0 0.0
2018-Apr-12 12:30N 51°27' E 003°42'0 0.7
2018-Apr-12 12:00N 51°27' E 003°42'1 2.6
2018-Apr-12 11:30N 51°27' E 003°40'4 7.8
2018-Apr-12 11:00N 51°26' E 003°34'4 8.2
2018-Apr-12 10:30N 51°25' E 003°28'5 9.8
2018-Apr-12 10:00N 51°24' E 003°20'611.5
2018-Apr-12 09:30N 51°24' E 003°11'612.0
2018-Apr-12 09:00N 51°25' E 003°01'610.7
2018-Apr-12 08:29N 51°25' E 002°52'610.7
2018-Apr-12 07:58N 51°23' E 002°44'3 6.3
2018-Apr-12 07:30N 51°25' E 002°40'1 1.4
2018-Apr-12 06:58N 51°26' E 002°40'  

Dump ship's entire track history